Time;durP1;ratioP1;P1;durP2;ratioP2;P2;SDS_P1;SDS_P2;PMS_P1;PMS_P2;Temp;Humidity;BMP_temperature;BMP_pressure;BME280_temperature;BME280_humidity;BME280_pressure;Samples;Min_cycle;Max_cycle;Signal;HPM_P1;HPM_P2
2023/10/15 00:01:44;;;;;;;6.47;2.40;;;12.80;99.90;;;;;;4947157;29;20031;-63
2023/10/15 00:04:12;;;;;;;5.75;2.72;;;12.80;99.90;;;;;;4953070;28;20066;-64
2023/10/15 00:06:40;;;;;;;6.50;2.85;;;12.80;99.90;;;;;;4954344;29;20023;-64
2023/10/15 00:09:07;;;;;;;4.85;2.75;;;12.80;99.90;;;;;;4954680;28;20035;-63
2023/10/15 00:11:32;;;;;;;7.00;2.88;;;12.90;99.90;;;;;;4954013;28;20051;-65
2023/10/15 00:13:58;;;;;;;9.32;2.80;;;13.00;99.90;;;;;;4953940;28;20035;-64
2023/10/15 00:16:24;;;;;;;5.88;2.17;;;13.00;99.90;;;;;;4954121;29;20034;-63
2023/10/15 00:18:50;;;;;;;4.78;2.05;;;13.00;99.90;;;;;;4954741;29;20059;-64
2023/10/15 00:21:16;;;;;;;6.22;2.30;;;13.00;99.90;;;;;;4954968;29;20114;-65
2023/10/15 00:23:43;;;;;;;6.18;2.50;;;13.00;99.90;;;;;;4955126;29;20019;-64
2023/10/15 00:26:12;;;;;;;4.82;1.92;;;12.90;99.90;;;;;;4953167;28;20023;-65
2023/10/15 00:28:38;;;;;;;3.53;1.73;;;12.90;99.90;;;;;;4954817;28;20027;-64
2023/10/15 00:31:11;;;;;;;4.40;1.67;;;12.90;99.90;;;;;;4953474;29;20078;-65
2023/10/15 00:33:42;;;;;;;3.70;1.98;;;12.80;99.90;;;;;;4954800;29;20020;-65
2023/10/15 00:36:13;;;;;;;5.93;2.03;;;12.80;99.90;;;;;;4955295;29;20031;-65
2023/10/15 00:38:45;;;;;;;6.60;1.67;;;12.70;99.90;;;;;;4955228;29;20027;-64
2023/10/15 00:41:14;;;;;;;4.97;1.75;;;12.80;99.90;;;;;;4955176;29;20396;-65
2023/10/15 00:43:55;;;;;;;3.65;1.27;;;12.70;99.90;;;;;;4954765;29;20027;-65
2023/10/15 00:46:22;;;;;;;3.40;1.60;;;12.70;99.90;;;;;;4954992;29;20027;-65
2023/10/15 00:48:49;;;;;;;3.67;1.33;;;12.60;99.90;;;;;;4954892;28;20031;-65
2023/10/15 00:51:16;;;;;;;3.05;1.15;;;12.60;99.90;;;;;;4955180;29;20047;-65
2023/10/15 00:53:49;;;;;;;3.45;1.30;;;12.60;99.80;;;;;;4953857;29;20023;-64
2023/10/15 00:56:20;;;;;;;4.93;0.93;;;12.60;99.90;;;;;;4954833;28;20037;-64
2023/10/15 01:03:48;;;;;;;2.40;0.90;;;12.60;99.90;;;;;;4955085;29;20112;-65
2023/10/15 01:06:35;;;;;;;4.43;1.05;;;12.60;99.90;;;;;;4954948;29;20058;-65
2023/10/15 01:09:27;;;;;;;2.22;0.77;;;12.60;99.90;;;;;;4954776;29;20019;-66
2023/10/15 01:11:56;;;;;;;2.97;0.77;;;12.60;99.90;;;;;;4957458;29;20047;-65
2023/10/15 01:14:32;;;;;;;4.95;1.20;;;12.60;99.90;;;;;;4958628;28;20110;-64
2023/10/15 01:17:01;;;;;;;3.33;0.95;;;12.50;99.90;;;;;;4958678;28;20039;-65
2023/10/15 01:19:33;;;;;;;4.22;0.98;;;12.50;99.90;;;;;;4958590;29;20106;-64
2023/10/15 01:22:02;;;;;;;4.65;0.73;;;12.50;99.90;;;;;;4958998;28;20027;-65
2023/10/15 01:24:32;;;;;;;4.10;1.13;;;12.50;99.90;;;;;;4958432;28;20440;-64
2023/10/15 01:29:35;;;;;;;2.08;0.90;;;12.40;99.90;;;;;;4958071;29;20102;-64
2023/10/15 01:32:10;;;;;;;5.35;1.52;;;12.40;99.90;;;;;;4958340;28;20039;-65
2023/10/15 01:34:40;;;;;;;3.28;0.98;;;12.40;99.90;;;;;;4958122;28;20027;-65
2023/10/15 01:37:15;;;;;;;8.60;1.60;;;12.40;99.90;;;;;;4958544;29;20027;-64
2023/10/15 01:39:54;;;;;;;5.85;0.88;;;12.40;99.90;;;;;;4957768;29;20035;-64
2023/10/15 01:44:54;;;;;;;;;;;12.30;99.90;;;;;;4958498;29;20035;-65
2023/10/15 01:47:27;;;;;;;2.85;0.80;;;12.40;99.70;;;;;;4958330;28;19957;-63
2023/10/15 01:49:56;;;;;;;4.18;0.95;;;12.30;99.90;;;;;;4957961;29;20520;-64
2023/10/15 01:52:32;;;;;;;4.93;1.27;;;12.30;99.90;;;;;;4958124;29;20034;-65
2023/10/15 01:55:03;;;;;;;5.38;1.17;;;12.30;99.90;;;;;;4957728;29;20484;-65
2023/10/15 01:57:29;;;;;;;3.23;0.93;;;12.20;99.90;;;;;;4958270;29;20102;-64
2023/10/15 02:00:05;;;;;;;6.90;1.63;;;12.30;99.90;;;;;;4957984;29;20354;-64
2023/10/15 02:02:32;;;;;;;4.55;0.90;;;12.30;99.90;;;;;;4957996;29;20381;-66
2023/10/15 02:04:58;;;;;;;6.15;1.20;;;12.20;99.90;;;;;;4957855;28;20094;-65
2023/10/15 02:07:24;;;;;;;2.97;1.13;;;12.30;99.90;;;;;;4957886;29;20078;-64
2023/10/15 02:09:53;;;;;;;3.92;0.98;;;12.30;99.80;;;;;;4957464;29;20028;-64
2023/10/15 02:12:19;;;;;;;5.75;1.52;;;12.30;99.80;;;;;;4957971;29;20039;-64
2023/10/15 02:14:47;;;;;;;6.47;1.55;;;12.30;99.90;;;;;;4957643;29;20027;-64
2023/10/15 02:17:18;;;;;;;4.00;1.15;;;12.20;99.90;;;;;;4957674;28;20499;-67
2023/10/15 02:19:44;;;;;;;5.68;1.35;;;12.20;99.90;;;;;;4957546;29;20368;-64
2023/10/15 02:22:14;;;;;;;5.75;1.08;;;12.10;99.90;;;;;;4957492;28;20034;-65
2023/10/15 02:24:47;;;;;;;3.80;0.82;;;12.10;99.90;;;;;;4957129;28;20027;-64
2023/10/15 02:27:24;;;;;;;6.78;1.40;;;12.10;99.90;;;;;;4957765;29;20027;-64
2023/10/15 02:29:52;;;;;;;5.15;1.60;;;12.20;99.90;;;;;;4957101;29;20023;-64
2023/10/15 02:32:28;;;;;;;4.20;1.30;;;12.10;99.90;;;;;;4957489;29;20292;-63
2023/10/15 02:34:54;;;;;;;3.00;1.00;;;12.10;99.90;;;;;;4957414;29;20047;-64
2023/10/15 02:37:26;;;;;;;4.82;1.20;;;12.10;99.90;;;;;;4957575;28;20023;-64
2023/10/15 02:39:52;;;;;;;8.35;2.17;;;12.10;99.90;;;;;;4956864;28;20035;-64
2023/10/15 02:42:18;;;;;;;7.38;1.83;;;12.10;99.90;;;;;;4957229;29;20163;-64
2023/10/15 02:44:45;;;;;;;3.83;1.38;;;12.10;99.90;;;;;;4957150;28;20015;-64
2023/10/15 02:47:19;;;;;;;7.07;1.30;;;12.10;99.90;;;;;;4957142;28;20078;-64
2023/10/15 02:50:04;;;;;;;4.25;1.00;;;12.10;99.90;;;;;;4956922;29;20106;-63
2023/10/15 02:52:43;;;;;;;8.00;1.73;;;12.10;99.90;;;;;;4956930;29;20034;-64
2023/10/15 02:55:11;;;;;;;6.93;1.13;;;12.10;99.90;;;;;;4956938;28;20484;-64
2023/10/15 02:57:43;;;;;;;4.72;0.80;;;12.10;99.90;;;;;;4957295;29;20039;-64
2023/10/15 03:00:28;;;;;;;4.95;0.77;;;12.10;99.90;;;;;;4956930;29;20024;-64
2023/10/15 03:02:54;;;;;;;4.00;1.15;;;12.10;99.90;;;;;;4956912;29;20030;-64
2023/10/15 03:05:30;;;;;;;3.25;1.10;;;12.00;99.90;;;;;;4956902;29;20460;-64
2023/10/15 03:07:56;;;;;;;3.85;0.95;;;12.10;99.90;;;;;;4956580;29;20027;-64
2023/10/15 03:10:22;;;;;;;2.45;0.88;;;12.00;99.80;;;;;;4956594;29;20043;-64
2023/10/15 03:12:48;;;;;;;2.25;0.50;;;12.10;99.70;;;;;;4956664;29;20033;-64
2023/10/15 03:15:15;;;;;;;2.42;0.93;;;12.10;99.70;;;;;;4956527;29;20391;-64
2023/10/15 03:17:42;;;;;;;7.47;1.33;;;12.10;99.70;;;;;;4956549;29;20051;-64
2023/10/15 03:20:43;;;;;;;3.30;0.70;;;12.10;99.80;;;;;;4956531;29;20026;-64
2023/10/15 03:22:58;;;;;;;3.88;0.52;;;12.00;99.80;;;;;;4955835;29;20039;-63
2023/10/15 03:25:26;;;;;;;1.95;0.50;;;12.00;99.90;;;;;;4956465;29;20030;-63
2023/10/15 03:27:54;;;;;;;3.47;0.70;;;12.00;99.90;;;;;;4956642;29;20036;-64
2023/10/15 03:30:23;;;;;;;2.53;0.55;;;12.00;99.80;;;;;;4956447;29;20035;-65
2023/10/15 03:32:49;;;;;;;3.30;1.00;;;12.00;99.90;;;;;;4955244;28;20019;-64
2023/10/15 03:35:18;;;;;;;2.50;0.60;;;12.00;99.90;;;;;;4955119;29;20030;-64
2023/10/15 03:37:48;;;;;;;3.55;0.70;;;12.00;99.90;;;;;;4955910;29;20118;-64
2023/10/15 03:43:06;;;;;;;3.33;0.60;;;12.00;99.90;;;;;;4956208;29;20164;-65
2023/10/15 03:45:50;;;;;;;2.58;0.68;;;11.80;99.90;;;;;;4956329;29;20043;-64
2023/10/15 03:48:16;;;;;;;3.25;0.90;;;11.80;99.90;;;;;;4955792;28;20106;-64
2023/10/15 03:50:53;;;;;;;6.72;0.55;;;11.80;99.90;;;;;;4955645;29;20123;-64
2023/10/15 03:53:21;;;;;;;2.17;0.45;;;11.80;99.90;;;;;;4955729;29;20023;-64
2023/10/15 03:55:49;;;;;;;4.10;0.90;;;11.80;99.90;;;;;;4955954;29;20369;-64
2023/10/15 03:58:17;;;;;;;4.85;1.02;;;11.80;99.90;;;;;;4955689;28;20424;-65
2023/10/15 04:01:01;;;;;;;5.38;0.90;;;11.70;99.90;;;;;;4955946;29;20019;-65
2023/10/15 04:03:35;;;;;;;5.22;1.13;;;11.70;99.90;;;;;;4955642;29;20020;-67
2023/10/15 04:06:01;;;;;;;6.10;1.10;;;11.70;99.90;;;;;;4955711;29;20039;-64
2023/10/15 04:08:27;;;;;;;6.28;1.35;;;11.70;99.90;;;;;;4955509;29;20070;-65
2023/10/15 04:10:57;;;;;;;5.18;1.35;;;11.70;99.90;;;;;;4955710;29;20493;-64
2023/10/15 04:13:23;;;;;;;4.13;1.70;;;11.70;99.90;;;;;;4955581;29;20484;-64
2023/10/15 04:15:49;;;;;;;6.03;1.50;;;11.70;99.90;;;;;;4955786;29;20031;-70
2023/10/15 04:18:16;;;;;;;5.70;1.75;;;11.70;99.90;;;;;;4955364;29;20049;-68
2023/10/15 04:20:42;;;;;;;4.97;2.17;;;11.70;99.90;;;;;;4955198;29;20027;-68
2023/10/15 04:23:27;;;;;;;6.50;2.05;;;11.60;99.90;;;;;;4955617;28;20047;-69
2023/10/15 04:25:53;;;;;;;5.28;1.95;;;11.60;99.90;;;;;;4955629;29;20388;-72
2023/10/15 04:28:19;;;;;;;5.90;2.00;;;11.60;99.90;;;;;;4955274;29;20021;-72
2023/10/15 04:30:46;;;;;;;6.50;1.60;;;11.60;99.90;;;;;;4955294;29;20443;-70
2023/10/15 04:33:15;;;;;;;9.82;2.35;;;11.60;99.90;;;;;;4955475;29;20030;-69
2023/10/15 04:35:41;;;;;;;5.63;1.65;;;11.60;99.90;;;;;;4955154;29;20038;-67
2023/10/15 04:38:07;;;;;;;5.15;1.80;;;11.50;99.90;;;;;;4955192;29;20023;-65
2023/10/15 04:43:26;;;;;;;4.13;2.03;;;11.50;99.90;;;;;;4955356;29;20042;-65
2023/10/15 04:45:56;;;;;;;6.13;2.55;;;11.50;99.90;;;;;;4955562;28;20023;-66
2023/10/15 04:48:27;;;;;;;6.13;2.95;;;11.50;99.90;;;;;;4954703;28;20029;-67
2023/10/15 04:50:53;;;;;;;7.18;2.72;;;11.50;99.90;;;;;;4955163;29;20086;-65
2023/10/15 04:55:46;;;;;;;6.57;2.67;;;11.50;99.90;;;;;;4955198;29;20114;-65
2023/10/15 04:58:12;;;;;;;6.32;2.33;;;11.50;99.90;;;;;;4955149;29;20015;-66
2023/10/15 05:00:42;;;;;;;8.10;2.42;;;11.50;99.90;;;;;;4955090;29;20031;-67
2023/10/15 05:03:09;;;;;;;7.60;2.90;;;11.50;99.90;;;;;;4954654;29;20104;-69
2023/10/15 05:05:35;;;;;;;6.65;2.45;;;11.50;99.90;;;;;;4955122;29;20028;-65
2023/10/15 05:08:01;;;;;;;7.97;3.20;;;11.50;99.90;;;;;;4955040;29;20073;-65
2023/10/15 05:10:31;;;;;;;8.32;3.08;;;11.50;99.90;;;;;;4954692;29;20496;-66
2023/10/15 05:12:56;;;;;;;9.75;3.22;;;11.50;99.90;;;;;;4954782;29;20030;-71
2023/10/15 05:15:23;;;;;;;7.93;2.90;;;11.50;99.90;;;;;;4955040;29;20110;-66
2023/10/15 05:17:48;;;;;;;6.22;3.15;;;11.50;99.90;;;;;;4954704;29;20106;-68
2023/10/15 05:20:14;;;;;;;4.63;2.80;;;11.50;99.90;;;;;;4954988;28;20131;-68
2023/10/15 05:22:40;;;;;;;7.20;3.60;;;11.50;99.90;;;;;;4954913;29;20396;-67
2023/10/15 05:25:15;;;;;;;9.95;3.45;;;11.40;99.90;;;;;;4953459;29;20024;-63
2023/10/15 05:27:42;;;;;;;9.55;4.32;;;11.40;99.90;;;;;;4954694;28;20487;-65
2023/10/15 05:30:11;;;;;;;10.13;4.53;;;11.40;99.90;;;;;;4954649;29;20038;-63
2023/10/15 05:32:37;;;;;;;9.00;4.50;;;11.40;99.90;;;;;;4954450;28;20497;-66
2023/10/15 05:35:08;;;;;;;9.82;4.65;;;11.30;99.90;;;;;;4954676;29;20028;-66
2023/10/15 05:37:36;;;;;;;10.27;5.07;;;11.30;99.90;;;;;;4954892;29;20038;-67
2023/10/15 05:40:03;;;;;;;11.35;5.30;;;11.30;99.90;;;;;;4954658;29;20032;-64
2023/10/15 05:42:29;;;;;;;8.85;5.07;;;11.30;99.90;;;;;;4953457;28;20471;-67
2023/10/15 05:44:56;;;;;;;14.27;5.43;;;11.30;99.90;;;;;;4954133;29;20079;-67
2023/10/15 05:47:22;;;;;;;8.15;4.38;;;11.30;99.90;;;;;;4953051;28;20489;-65
2023/10/15 05:49:48;;;;;;;9.55;4.60;;;11.30;99.90;;;;;;4954253;28;20122;-64
2023/10/15 05:52:14;;;;;;;10.20;4.20;;;11.20;99.90;;;;;;4953717;29;20047;-64
2023/10/15 05:54:39;;;;;;;6.22;3.50;;;11.20;99.90;;;;;;4952804;29;20027;-64
2023/10/15 05:57:08;;;;;;;8.55;3.58;;;11.30;99.90;;;;;;4955988;28;20056;-65
2023/10/15 05:59:36;;;;;;;8.88;2.95;;;11.20;99.90;;;;;;4957995;28;20038;-63
2023/10/15 06:02:04;;;;;;;7.45;3.17;;;11.20;99.90;;;;;;4957604;29;20047;-66
2023/10/15 06:04:30;;;;;;;8.02;2.72;;;11.20;99.90;;;;;;4956076;28;20019;-63
2023/10/15 06:06:56;;;;;;;7.15;2.72;;;11.20;99.90;;;;;;4957587;29;20024;-64
2023/10/15 06:09:23;;;;;;;3.90;2.13;;;11.20;99.90;;;;;;4953360;28;20030;-61
2023/10/15 06:11:49;;;;;;;6.68;2.45;;;11.70;99.90;;;;;;4957789;28;20067;-62
2023/10/15 06:14:15;;;;;;;7.30;2.90;;;11.90;99.90;;;;;;4971699;28;20053;-65
2023/10/15 06:16:41;;;;;;;9.50;2.70;;;11.90;99.90;;;;;;4959006;28;20579;-64
2023/10/15 06:19:09;;;;;;;8.52;3.15;;;11.80;99.80;;;;;;4971835;28;20022;-69
2023/10/15 06:21:35;;;;;;;9.95;5.40;;;11.70;99.80;;;;;;4963128;28;20114;-68
2023/10/15 06:24:01;;;;;;;6.65;3.47;;;11.80;99.80;;;;;;4967782;28;20496;-64
2023/10/15 06:26:28;;;;;;;8.88;3.25;;;11.70;99.90;;;;;;4959363;28;20123;-64
2023/10/15 06:28:53;;;;;;;5.68;2.95;;;11.70;99.70;;;;;;4970117;28;20026;-74
2023/10/15 06:31:19;;;;;;;9.70;3.80;;;11.70;99.80;;;;;;4954410;28;20031;-69
2023/10/15 06:33:45;;;;;;;7.85;3.50;;;11.70;99.70;;;;;;4967505;28;20073;-72
2023/10/15 06:36:11;;;;;;;7.75;3.00;;;11.60;99.90;;;;;;4960361;28;20027;-68
2023/10/15 06:38:36;;;;;;;8.82;2.88;;;11.90;99.90;;;;;;4957333;28;20139;-71
2023/10/15 06:41:02;;;;;;;6.15;2.22;;;12.10;99.90;;;;;;4962188;28;20043;-69
2023/10/15 06:43:28;;;;;;;7.90;2.00;;;12.20;99.90;;;;;;4965462;28;20023;-71
2023/10/15 06:45:54;;;;;;;6.57;2.63;;;12.30;99.90;;;;;;4968155;28;20046;-67
2023/10/15 06:48:22;;;;;;;8.57;2.55;;;12.30;99.90;;;;;;4958752;28;20031;-73
2023/10/15 06:50:49;;;;;;;7.35;2.40;;;12.40;99.90;;;;;;4959310;28;20035;-74
2023/10/15 06:53:14;;;;;;;9.48;2.72;;;12.40;99.90;;;;;;4967584;28;20422;-69
2023/10/15 06:55:42;;;;;;;4.95;2.13;;;12.50;99.90;;;;;;4961287;28;20535;-75
2023/10/15 06:58:10;;;;;;;7.38;1.80;;;12.50;99.90;;;;;;4969765;28;20027;-71
2023/10/15 07:00:36;;;;;;;8.25;2.10;;;12.50;99.90;;;;;;4956664;28;20031;-73
2023/10/15 07:03:02;;;;;;;7.90;2.42;;;12.50;99.90;;;;;;4954506;28;20098;-75
2023/10/15 07:05:28;;;;;;;7.25;2.20;;;12.60;99.90;;;;;;4964477;28;20042;-67
2023/10/15 07:07:57;;;;;;;4.35;1.83;;;12.60;99.90;;;;;;4959990;28;20019;-69
2023/10/15 07:10:23;;;;;;;5.13;1.95;;;12.60;99.90;;;;;;4958165;28;20071;-66
2023/10/15 07:12:52;;;;;;;9.20;2.53;;;12.60;99.80;;;;;;4961621;28;20057;-64
2023/10/15 07:15:23;;;;;;;5.97;2.47;;;12.60;99.70;;;;;;4956637;28;20058;-71
2023/10/15 07:17:50;;;;;;;7.07;2.90;;;12.60;99.60;;;;;;4950485;28;20142;-70
2023/10/15 07:20:20;;;;;;;6.60;2.70;;;12.70;99.50;;;;;;4955211;28;20547;-69
2023/10/15 07:22:51;;;;;;;10.90;2.95;;;12.60;98.80;;;;;;4942805;28;20033;-63
2023/10/15 07:25:18;;;;;;;6.35;2.35;;;12.60;98.80;;;;;;4960918;28;20027;-73
2023/10/15 07:27:48;;;;;;;8.60;2.50;;;12.20;99.20;;;;;;4954620;28;20023;-68
2023/10/15 07:30:15;;;;;;;7.53;2.63;;;12.10;99.40;;;;;;4956603;28;20054;-71
2023/10/15 07:32:43;;;;;;;6.43;2.17;;;12.10;99.50;;;;;;4962198;28;20498;-67
2023/10/15 07:35:13;;;;;;;7.53;2.80;;;12.10;99.50;;;;;;4961565;28;20015;-62
2023/10/15 07:37:50;;;;;;;8.30;3.03;;;12.00;99.50;;;;;;4959165;28;20392;-68
2023/10/15 07:40:17;;;;;;;6.32;2.38;;;12.00;99.70;;;;;;4957847;28;20027;-72
2023/10/15 07:42:45;;;;;;;7.50;2.83;;;12.00;99.40;;;;;;4951982;28;20038;-69
2023/10/15 07:45:11;;;;;;;7.55;3.35;;;12.20;99.60;;;;;;4947576;28;20038;-71
2023/10/15 07:47:39;;;;;;;15.63;3.10;;;12.30;99.10;;;;;;4956038;28;20022;-74
2023/10/15 07:50:10;;;;;;;7.97;3.20;;;12.30;99.10;;;;;;4958180;28;20500;-70
2023/10/15 07:52:37;;;;;;;11.30;3.30;;;12.20;99.00;;;;;;4960238;28;20046;-74
2023/10/15 07:55:05;;;;;;;8.40;3.13;;;12.40;99.30;;;;;;4955177;28;20495;-72
2023/10/15 07:57:31;;;;;;;9.82;3.50;;;12.30;99.30;;;;;;4954243;28;20027;-72
2023/10/15 08:00:00;;;;;;;6.88;2.72;;;12.40;99.40;;;;;;4960671;28;20098;-71
2023/10/15 08:02:26;;;;;;;7.10;3.08;;;12.30;99.60;;;;;;4948340;28;20027;-63
2023/10/15 08:04:55;;;;;;;7.68;2.97;;;12.40;99.60;;;;;;4951541;28;20027;-64
2023/10/15 08:07:24;;;;;;;11.10;2.33;;;12.40;99.60;;;;;;4959837;28;20149;-67
2023/10/15 08:09:50;;;;;;;6.38;2.63;;;12.60;99.90;;;;;;4954907;28;20034;-71
2023/10/15 08:12:17;;;;;;;6.95;2.70;;;12.70;99.90;;;;;;4950421;28;20042;-63
2023/10/15 08:14:45;;;;;;;7.78;2.95;;;12.80;99.80;;;;;;4951032;28;20031;-62
2023/10/15 08:17:11;;;;;;;9.63;2.85;;;12.90;99.60;;;;;;4961588;28;20045;-63
2023/10/15 08:19:37;;;;;;;8.10;3.13;;;12.90;99.00;;;;;;4953205;28;20031;-64
2023/10/15 08:22:04;;;;;;;7.20;2.47;;;13.00;98.80;;;;;;4960616;28;20507;-62
2023/10/15 08:24:30;;;;;;;7.18;2.72;;;13.00;98.90;;;;;;4949914;28;20392;-62
2023/10/15 08:26:56;;;;;;;8.65;2.88;;;13.00;99.10;;;;;;4961109;28;20054;-62
2023/10/15 08:29:22;;;;;;;9.57;2.50;;;13.00;99.20;;;;;;4951532;28;20063;-62
2023/10/15 08:31:48;;;;;;;7.47;2.83;;;13.10;99.50;;;;;;4956377;28;20594;-63
2023/10/15 08:34:14;;;;;;;10.73;2.72;;;12.90;99.50;;;;;;4962696;28;20373;-63
2023/10/15 08:36:40;;;;;;;5.78;2.10;;;13.00;99.90;;;;;;4965129;28;20045;-63
2023/10/15 08:39:08;;;;;;;9.00;1.90;;;13.00;99.90;;;;;;4953746;28;20093;-63
2023/10/15 08:41:43;;;;;;;4.90;1.85;;;13.10;99.90;;;;;;4949641;29;20479;-65
2023/10/15 08:44:10;;;;;;;5.63;1.77;;;13.10;99.90;;;;;;4948514;28;20106;-64
2023/10/15 08:46:39;;;;;;;10.57;2.63;;;13.10;99.90;;;;;;4953603;28;20032;-63
2023/10/15 08:49:09;;;;;;;7.53;2.45;;;13.00;99.70;;;;;;4948515;28;20035;-62
2023/10/15 08:51:39;;;;;;;7.68;2.10;;;12.90;99.90;;;;;;4945286;28;20051;-63
2023/10/15 08:54:08;;;;;;;7.82;2.10;;;12.90;99.80;;;;;;4952803;28;20035;-62
2023/10/15 08:56:34;;;;;;;9.52;2.65;;;13.10;99.90;;;;;;4955460;28;20070;-64
2023/10/15 08:59:00;;;;;;;9.95;2.50;;;13.00;99.70;;;;;;4959000;28;20504;-63
2023/10/15 09:02:18;;;;;;;9.68;1.98;;;13.00;99.80;;;;;;4962379;28;20035;-66
2023/10/15 09:04:53;;;;;;;7.88;2.00;;;13.10;99.90;;;;;;4950203;28;20031;-61
2023/10/15 09:07:33;;;;;;;8.80;2.38;;;13.00;99.90;;;;;;4952171;28;20032;-62
2023/10/15 09:10:00;;;;;;;8.15;2.00;;;12.80;99.30;;;;;;4953196;28;20012;-62
2023/10/15 09:12:28;;;;;;;12.30;2.38;;;12.80;99.60;;;;;;4949452;28;20039;-62
2023/10/15 09:14:54;;;;;;;9.10;2.78;;;12.80;99.70;;;;;;4951270;28;20936;-61
2023/10/15 09:17:20;;;;;;;9.02;2.13;;;12.80;99.90;;;;;;4957317;28;20038;-62
2023/10/15 09:19:46;;;;;;;11.65;2.47;;;12.80;99.80;;;;;;4960114;28;21066;-61
2023/10/15 09:22:15;;;;;;;7.32;2.22;;;12.80;99.90;;;;;;4957509;28;20028;-64
2023/10/15 09:24:49;;;;;;;9.43;2.00;;;12.80;99.90;;;;;;4958530;28;20036;-65
2023/10/15 09:27:44;;;;;;;12.15;2.47;;;12.80;99.90;;;;;;4951284;29;20028;-63
2023/10/15 09:30:27;;;;;;;8.40;1.73;;;12.90;99.90;;;;;;4956718;28;20158;-62
2023/10/15 09:32:54;;;;;;;7.13;1.73;;;12.80;99.80;;;;;;4953901;28;20039;-62
2023/10/15 09:35:21;;;;;;;5.63;1.92;;;12.80;99.60;;;;;;4963241;28;20023;-65
2023/10/15 09:37:47;;;;;;;6.32;1.55;;;12.80;99.70;;;;;;4965706;28;20154;-63
2023/10/15 09:40:19;;;;;;;5.60;1.70;;;12.90;99.70;;;;;;4962514;28;20113;-66
2023/10/15 09:42:46;;;;;;;;;;;12.90;99.60;;;;;;4959061;28;20132;-62
2023/10/15 09:45:18;;;;;;;8.93;2.13;;;13.00;99.70;;;;;;4954959;28;19914;-62
2023/10/15 09:47:57;;;;;;;6.77;1.83;;;13.00;99.90;;;;;;4952344;28;20086;-63
2023/10/15 09:50:27;;;;;;;6.93;1.42;;;13.10;99.90;;;;;;4945971;28;20742;-63
2023/10/15 09:53:28;;;;;;;5.85;1.75;;;13.10;99.90;;;;;;4944444;28;20027;-69
2023/10/15 09:56:42;;;;;;;5.03;1.35;;;13.20;99.90;;;;;;4953450;28;20055;-65
2023/10/15 09:59:17;;;;;;;7.18;1.90;;;13.30;99.90;;;;;;4953203;28;20028;-63
2023/10/15 10:02:13;;;;;;;10.68;2.60;;;13.40;99.90;;;;;;4945757;28;20038;-63
2023/10/15 10:05:41;;;;;;;8.48;2.33;;;13.50;99.90;;;;;;4951454;28;20110;-63
2023/10/15 10:08:53;;;;;;;11.32;2.00;;;13.50;99.90;;;;;;4951508;28;20504;-65
2023/10/15 10:11:27;;;;;;;10.25;2.30;;;13.50;99.90;;;;;;4943232;28;20058;-62
2023/10/15 10:14:07;;;;;;;9.43;2.80;;;13.50;99.90;;;;;;4949987;28;20038;-61
2023/10/15 10:16:34;;;;;;;13.35;3.15;;;13.60;99.90;;;;;;4953454;28;20048;-64
2023/10/15 10:19:01;;;;;;;9.50;2.85;;;13.60;99.90;;;;;;4961192;28;20066;-64
2023/10/15 10:21:32;;;;;;;9.68;2.08;;;13.60;99.90;;;;;;4950803;28;20037;-67
2023/10/15 10:23:58;;;;;;;11.27;3.13;;;13.70;99.90;;;;;;4952139;28;20031;-62
2023/10/15 10:26:27;;;;;;;7.45;2.75;;;13.70;99.60;;;;;;4954415;28;20125;-62
2023/10/15 10:28:56;;;;;;;6.82;1.58;;;13.80;99.40;;;;;;4946933;28;20039;-63
2023/10/15 10:31:22;;;;;;;4.63;1.27;;;13.80;98.70;;;;;;4946574;29;20045;-63
2023/10/15 10:33:50;;;;;;;9.35;1.85;;;13.70;97.40;;;;;;4954618;28;20477;-67
2023/10/15 10:36:19;;;;;;;7.15;1.63;;;13.70;96.70;;;;;;4955907;28;20055;-64
2023/10/15 10:39:00;;;;;;;6.15;1.63;;;13.70;96.30;;;;;;4956878;28;20403;-68
2023/10/15 10:41:41;;;;;;;5.47;1.35;;;13.70;96.00;;;;;;4954326;28;20082;-63
2023/10/15 10:44:34;;;;;;;3.60;0.98;;;13.70;94.90;;;;;;4952984;28;20487;-69
2023/10/15 10:47:19;;;;;;;3.55;0.68;;;13.70;94.60;;;;;;4953995;28;20388;-62
2023/10/15 10:49:55;;;;;;;4.28;1.00;;;13.50;94.90;;;;;;4965488;28;20045;-64
2023/10/15 10:52:36;;;;;;;4.50;0.90;;;13.50;95.80;;;;;;4958389;28;20153;-64
2023/10/15 10:55:30;;;;;;;4.35;1.27;;;13.50;96.30;;;;;;4940477;28;20058;-63
2023/10/15 10:57:56;;;;;;;4.95;0.70;;;13.50;97.20;;;;;;4965673;28;20026;-65
2023/10/15 11:00:22;;;;;;;5.82;1.17;;;13.50;97.70;;;;;;4958010;28;20015;-64
2023/10/15 11:02:48;;;;;;;6.30;1.40;;;13.40;97.70;;;;;;4963939;28;20086;-62
2023/10/15 11:05:17;;;;;;;3.97;1.13;;;13.40;98.50;;;;;;4961537;28;20109;-63
2023/10/15 11:07:46;;;;;;;5.43;0.90;;;13.40;98.40;;;;;;4958402;28;20115;-62
2023/10/15 11:10:12;;;;;;;4.25;1.50;;;13.50;98.70;;;;;;4949987;28;20844;-65
2023/10/15 11:12:38;;;;;;;3.05;1.30;;;13.50;98.60;;;;;;4957356;28;20035;-66
2023/10/15 11:15:08;;;;;;;4.32;0.90;;;13.50;98.70;;;;;;4967344;28;20358;-65
2023/10/15 11:17:34;;;;;;;4.03;0.70;;;13.50;99.40;;;;;;4953685;28;20086;-64
2023/10/15 11:20:01;;;;;;;4.00;0.70;;;13.60;99.60;;;;;;4959529;28;20031;-65
2023/10/15 11:22:27;;;;;;;6.65;0.90;;;13.60;99.00;;;;;;4956242;28;20400;-65
2023/10/15 11:24:53;;;;;;;4.65;1.05;;;13.70;98.60;;;;;;4957511;28;20042;-63
2023/10/15 11:27:19;;;;;;;6.28;0.93;;;13.70;98.60;;;;;;4954068;28;20051;-65
2023/10/15 11:29:45;;;;;;;4.93;1.10;;;13.70;99.00;;;;;;4959315;28;20109;-64
2023/10/15 11:32:12;;;;;;;3.28;1.10;;;13.80;98.40;;;;;;4958621;28;20631;-68
2023/10/15 11:34:39;;;;;;;6.65;1.10;;;13.80;99.00;;;;;;4966029;28;20027;-65
2023/10/15 11:37:09;;;;;;;3.45;1.08;;;13.80;99.70;;;;;;4957783;28;20058;-66
2023/10/15 11:39:38;;;;;;;6.07;1.27;;;13.90;99.30;;;;;;4965142;28;20015;-64
2023/10/15 11:42:06;;;;;;;3.92;0.80;;;14.00;99.30;;;;;;4957536;28;20118;-64
2023/10/15 11:44:33;;;;;;;5.32;0.90;;;14.00;99.20;;;;;;4949769;28;20027;-67
2023/10/15 11:47:08;;;;;;;3.53;1.25;;;13.90;99.30;;;;;;4957826;28;20031;-64
2023/10/15 11:49:38;;;;;;;5.50;1.10;;;13.90;99.00;;;;;;4951210;28;20042;-65
2023/10/15 11:52:11;;;;;;;4.53;1.05;;;13.90;99.10;;;;;;4953606;28;20130;-65
2023/10/15 11:54:43;;;;;;;4.05;1.23;;;13.90;99.20;;;;;;4952131;28;20076;-64
2023/10/15 11:57:20;;;;;;;;;;;13.90;99.30;;;;;;4952300;28;20023;-65
2023/10/15 11:59:45;;;;;;;4.60;0.68;;;14.00;99.30;;;;;;4954469;28;20004;-69
2023/10/15 12:02:11;;;;;;;2.60;0.43;;;13.90;99.30;;;;;;4958081;28;20114;-65
2023/10/15 12:04:40;;;;;;;3.88;1.02;;;13.90;99.40;;;;;;4956184;28;20110;-65
2023/10/15 12:07:15;;;;;;;7.68;1.70;;;13.90;99.70;;;;;;4967431;28;20038;-76
2023/10/15 12:09:44;;;;;;;6.55;1.15;;;14.00;99.80;;;;;;4962380;28;20027;-65
2023/10/15 12:12:11;;;;;;;3.88;0.80;;;14.00;99.20;;;;;;4953105;29;20039;-65
2023/10/15 12:14:37;;;;;;;5.03;0.85;;;14.10;99.20;;;;;;4945068;28;20039;-64
2023/10/15 12:17:04;;;;;;;3.55;1.13;;;14.20;99.30;;;;;;4948083;28;20106;-65
2023/10/15 12:19:30;;;;;;;5.75;1.30;;;14.20;99.40;;;;;;4954814;28;20027;-66
2023/10/15 12:21:58;;;;;;;4.30;1.15;;;14.20;99.80;;;;;;4960256;28;20086;-67
2023/10/15 12:24:25;;;;;;;6.45;0.95;;;14.30;99.00;;;;;;4959212;28;20042;-65
2023/10/15 12:26:52;;;;;;;4.55;0.50;;;14.30;99.10;;;;;;4962626;28;20092;-63
2023/10/15 12:29:21;;;;;;;2.97;0.80;;;14.30;99.00;;;;;;4965999;28;20031;-65
2023/10/15 12:31:47;;;;;;;3.67;0.98;;;14.40;99.30;;;;;;4950534;28;20043;-64
2023/10/15 12:34:12;;;;;;;4.60;1.15;;;14.40;98.40;;;;;;4949329;28;20031;-65
2023/10/15 12:36:39;;;;;;;5.60;1.00;;;14.40;98.80;;;;;;4951868;28;20031;-67
2023/10/15 12:39:08;;;;;;;7.72;1.52;;;14.50;98.90;;;;;;4945425;28;20560;-64
2023/10/15 12:41:38;;;;;;;4.68;1.10;;;14.50;98.50;;;;;;4950243;28;20484;-64
2023/10/15 12:44:10;;;;;;;5.63;1.17;;;14.50;98.40;;;;;;4949136;28;20035;-66
2023/10/15 12:46:37;;;;;;;2.10;0.73;;;14.60;98.50;;;;;;4948776;28;20027;-65
2023/10/15 12:49:03;;;;;;;6.90;1.30;;;14.70;98.90;;;;;;4951657;28;20044;-71
2023/10/15 12:51:30;;;;;;;5.20;0.95;;;14.80;98.80;;;;;;4950922;28;20074;-67
2023/10/15 12:53:56;;;;;;;5.00;0.98;;;14.80;98.90;;;;;;4952152;28;20055;-66
2023/10/15 12:56:22;;;;;;;6.70;1.35;;;14.70;97.40;;;;;;4953509;28;20023;-66
2023/10/15 12:58:50;;;;;;;8.85;1.33;;;14.50;97.90;;;;;;4965178;28;20030;-67
2023/10/15 13:01:20;;;;;;;8.95;1.50;;;14.30;98.70;;;;;;4953930;28;20019;-65
2023/10/15 13:03:49;;;;;;;9.05;2.00;;;14.20;99.10;;;;;;4946660;28;20039;-64
2023/10/15 13:06:16;;;;;;;6.68;1.38;;;14.10;99.30;;;;;;4952265;28;20027;-64
2023/10/15 13:08:43;;;;;;;4.45;1.48;;;14.10;99.10;;;;;;4961960;28;20094;-65
2023/10/15 13:11:11;;;;;;;7.95;1.25;;;14.00;99.40;;;;;;4952997;28;20496;-64
2023/10/15 13:13:38;;;;;;;4.13;0.93;;;13.90;99.50;;;;;;4955687;28;20113;-63
2023/10/15 13:16:04;;;;;;;6.38;1.38;;;13.90;99.80;;;;;;4957838;28;20035;-64
2023/10/15 13:18:37;;;;;;;4.05;1.30;;;14.00;99.90;;;;;;4964750;28;20081;-64
2023/10/15 13:21:03;;;;;;;6.20;1.67;;;13.90;99.50;;;;;;4959016;28;20062;-64